Für Piloten

Informationen für Piloten zum Flugplatz Borken-Hoxfeld
Hier findest Du alle relevanten Informationen, die Du als Pilot benötigst, um Borken-Hoxfeld anzufliegen.

Flugplatz: Borken-Hoxfeld ICAO-Code: EDLY
Borken-Hoxfeld Info: 122,925 Mhz
GAFOR Gebiet: 32
Platzrunde: Motorflug; -> Südplatzrunde; Segelflug; -> Nordplatzrunde;
Landegebühr: z.Zt. 5,00 Euro
Platzhöhe: 48m üMSL
Pisten: 12/30 – 740 m x 30 m, GRAS
Betriebszeiten: PPR (in den Sommermonaten Mittagspause beachten)

 

Wetterforecast:

Available data for EDDL from the past 2 hours
DUESSELDORF
Metar
EDDL 180620Z 19003KT 140V220 CAVOK 16/12 Q1022 NOSIG

06:20 UTC

Wind: 190° 3kt

Visibility:

Sky:

Temp: 16 deg C / 60.8 deg F

Dewpoint: 12 deg C / 53.6 deg F

Pressure: 1022 hPa

TAF
TAF EDDL 180500Z 1806/1912 22006KT CAVOK BECMG 1818/1821 VRB03KT

Alle obigen Informationen ersetzen nicht die vorgeschriebene, persönliche Flugvorbereitung.